Sonora, Texas
Current Conditions -  °F | °C
As of 7:15 PM on Thursday 18 Dec 2014 (Local Time) from KSOA Reporting Station
Broken Clouds Broken Clouds  
Wind Chill: 15°   Ceiling: 5000
Heat Index: 15°   Visibility: 10mi
Dew Point:   Wind: 5mph
Humidity: 51%   Direction: 360°N
Pressure: 30.09"   Gusts: NA
Location:  30.57°N, 100.64°W
Report Text: KSOA 190115Z AUTO 36004KT 10SM BKN050 15/05 A3009 RMK AO2
Loading
Personal Weather Stations






























Interactive Weather Map New forecast layout! Learn more

10-Day Weather Forecast

Advertisements
Track Severe Weather on mobile